Time;durP1;ratioP1;P1;durP2;ratioP2;P2;SDS_P1;SDS_P2;PMS_P1;PMS_P2;Temp;Humidity;BMP_temperature;BMP_pressure;BME280_temperature;BME280_humidity;BME280_pressure;Samples;Min_cycle;Max_cycle;Signal;HPM_P1;HPM_P2
2023/11/23 00:00:54;;;;;;;27.83;11.48;;;0.80;77.80;;;;;;4795086;29;20051;-89
2023/11/23 00:03:21;;;;;;;22.47;9.93;;;0.60;76.80;;;;;;4794804;29;20510;-89
2023/11/23 00:05:48;;;;;;;24.60;10.35;;;0.50;76.80;;;;;;4809746;29;20042;-89
2023/11/23 00:08:15;;;;;;;19.73;8.85;;;0.40;76.90;;;;;;4809756;29;20421;-89
2023/11/23 00:10:42;;;;;;;18.75;6.50;;;0.40;76.60;;;;;;4809744;29;20046;-90
2023/11/23 00:13:09;;;;;;;25.13;9.65;;;0.40;76.70;;;;;;4809691;29;20046;-91
2023/11/23 00:15:36;;;;;;;23.30;9.67;;;0.40;76.90;;;;;;4809734;29;20100;-91
2023/11/23 00:18:03;;;;;;;22.85;9.23;;;0.50;76.90;;;;;;4809623;29;20054;-91
2023/11/23 00:20:31;;;;;;;22.40;9.85;;;0.50;76.30;;;;;;4809766;29;20141;-91
2023/11/23 00:22:58;;;;;;;20.73;9.18;;;0.50;76.00;;;;;;4795797;29;20051;-91
2023/11/23 00:25:27;;;;;;;21.27;9.40;;;0.50;76.00;;;;;;4777018;29;20050;-91
2023/11/23 00:27:54;;;;;;;21.93;8.97;;;0.40;76.40;;;;;;4791126;29;20047;-91
2023/11/23 00:30:21;;;;;;;21.98;8.85;;;0.50;76.70;;;;;;4806973;29;20532;-91
2023/11/23 00:32:49;;;;;;;20.13;8.77;;;0.50;76.20;;;;;;4809239;29;20084;-91
2023/11/23 00:35:17;;;;;;;23.42;9.50;;;0.50;75.80;;;;;;4794663;29;20056;-90
2023/11/23 00:37:46;;;;;;;21.30;8.93;;;0.50;75.90;;;;;;4778502;30;20055;-91
2023/11/23 00:40:13;;;;;;;19.80;8.90;;;0.60;76.40;;;;;;4773794;30;20055;-90
2023/11/23 00:42:41;;;;;;;20.20;8.40;;;0.70;76.20;;;;;;4788671;30;20055;-90
2023/11/23 00:45:09;;;;;;;17.17;8.13;;;0.70;76.10;;;;;;4807357;29;20061;-90
2023/11/23 00:47:36;;;;;;;19.75;8.60;;;0.70;75.80;;;;;;4794471;29;20057;-90
2023/11/23 00:50:06;;;;;;;22.17;8.85;;;0.70;76.00;;;;;;4808867;29;20114;-90
2023/11/23 00:52:33;;;;;;;25.20;10.30;;;0.70;76.20;;;;;;4794185;29;20421;-91
2023/11/23 00:55:04;;;;;;;28.48;12.70;;;0.90;76.40;;;;;;4809604;29;20061;-90
2023/11/23 00:57:33;;;;;;;25.58;12.63;;;0.90;76.50;;;;;;4794498;29;20078;-91
2023/11/23 01:00:00;;;;;;;25.73;11.27;;;1.00;76.70;;;;;;4794470;29;20417;-91
2023/11/23 01:02:28;;;;;;;28.38;12.85;;;1.00;76.30;;;;;;4809078;29;20043;-91
2023/11/23 01:04:55;;;;;;;25.07;11.73;;;1.00;76.10;;;;;;4794452;29;20110;-90
2023/11/23 01:07:22;;;;;;;28.08;13.35;;;1.00;76.10;;;;;;4809550;29;20051;-90
2023/11/23 01:09:49;;;;;;;26.00;11.55;;;1.10;76.10;;;;;;4794063;29;20062;-90
2023/11/23 01:12:17;;;;;;;28.00;12.52;;;1.10;75.70;;;;;;4794220;29;20046;-90
2023/11/23 01:14:44;;;;;;;31.92;12.82;;;1.20;75.90;;;;;;4809122;29;20043;-91
2023/11/23 01:17:12;;;;;;;28.77;12.73;;;1.20;75.70;;;;;;4808855;29;20153;-91
2023/11/23 01:19:39;;;;;;;29.35;11.90;;;1.20;75.70;;;;;;4794240;29;20501;-90
2023/11/23 01:22:06;;;;;;;23.88;11.02;;;1.20;75.70;;;;;;4808646;29;20070;-90
2023/11/23 01:24:33;;;;;;;24.17;11.50;;;1.10;75.30;;;;;;4792650;29;20043;-91
2023/11/23 01:27:00;;;;;;;27.10;11.07;;;1.10;75.30;;;;;;4802752;29;20054;-91
2023/11/23 01:29:28;;;;;;;24.97;10.70;;;1.20;75.50;;;;;;4786863;29;20050;-91
2023/11/23 01:31:55;;;;;;;28.13;11.85;;;1.20;75.30;;;;;;4809089;29;20043;-91
2023/11/23 01:34:22;;;;;;;30.13;13.45;;;1.10;75.30;;;;;;4808946;29;20050;-90
2023/11/23 01:36:49;;;;;;;31.88;13.88;;;1.20;75.60;;;;;;4809295;29;20057;-90
2023/11/23 01:39:17;;;;;;;31.65;13.68;;;1.20;75.30;;;;;;4809112;29;20078;-91
2023/11/23 01:41:44;;;;;;;28.30;11.17;;;1.20;75.40;;;;;;4812025;29;20069;-91
2023/11/23 01:44:11;;;;;;;26.90;12.43;;;1.20;75.10;;;;;;4797226;29;20501;-91
2023/11/23 01:46:38;;;;;;;27.90;12.50;;;1.20;74.90;;;;;;4797162;29;20111;-90
2023/11/23 01:49:06;;;;;;;29.30;12.07;;;1.10;74.90;;;;;;4812028;29;20054;-91
2023/11/23 01:51:34;;;;;;;25.20;11.93;;;1.10;75.40;;;;;;4796762;29;20054;-90
2023/11/23 01:54:01;;;;;;;27.30;11.97;;;1.10;75.20;;;;;;4794726;29;20039;-90
2023/11/23 01:56:29;;;;;;;30.02;12.55;;;1.10;75.00;;;;;;4811003;29;20062;-90
2023/11/23 01:58:57;;;;;;;25.52;10.90;;;1.10;74.90;;;;;;4796180;29;20054;-90
2023/11/23 02:01:24;;;;;;;27.38;10.95;;;1.10;74.60;;;;;;4796478;29;20050;-90
2023/11/23 02:03:52;;;;;;;29.88;11.88;;;1.10;74.80;;;;;;4796265;29;20070;-90
2023/11/23 02:06:19;;;;;;;32.23;13.73;;;1.20;75.10;;;;;;4795967;29;20137;-90
2023/11/23 02:08:48;;;;;;;38.35;13.70;;;1.20;75.20;;;;;;4811876;29;20053;-90
2023/11/23 02:11:16;;;;;;;30.55;13.27;;;1.40;75.30;;;;;;4796374;29;20042;-90
2023/11/23 02:13:43;;;;;;;30.35;13.50;;;1.40;75.10;;;;;;4796461;29;20042;-90
2023/11/23 02:16:10;;;;;;;34.20;14.27;;;1.40;74.90;;;;;;4811688;29;20062;-91
2023/11/23 02:18:38;;;;;;;32.37;13.57;;;1.40;74.70;;;;;;4796141;29;20121;-90
2023/11/23 02:21:06;;;;;;;32.75;13.30;;;1.20;75.00;;;;;;4796025;29;20108;-90
2023/11/23 02:23:34;;;;;;;29.52;13.60;;;1.20;75.50;;;;;;4810024;29;20111;-90
2023/11/23 02:26:02;;;;;;;38.03;14.38;;;1.20;75.20;;;;;;4786644;29;20050;-90
2023/11/23 02:28:31;;;;;;;43.92;15.68;;;1.30;75.70;;;;;;4790590;29;20050;-90
2023/11/23 02:30:59;;;;;;;36.67;15.50;;;1.30;76.30;;;;;;4793109;29;20046;-90
2023/11/23 02:33:26;;;;;;;38.22;14.20;;;1.20;76.30;;;;;;4793549;29;20501;-90
2023/11/23 02:35:53;;;;;;;30.40;14.13;;;1.20;76.80;;;;;;4792946;29;20082;-90
2023/11/23 02:38:20;;;;;;;35.63;14.52;;;1.20;76.70;;;;;;4793084;29;20138;-90
2023/11/23 02:40:47;;;;;;;29.27;13.88;;;1.10;77.00;;;;;;4795348;29;20051;-91
2023/11/23 02:43:14;;;;;;;33.07;14.33;;;1.20;77.30;;;;;;4796004;29;20051;-90
2023/11/23 02:45:42;;;;;;;30.98;13.85;;;1.20;76.90;;;;;;4796206;29;20053;-90
2023/11/23 02:48:09;;;;;;;32.83;13.85;;;1.30;77.00;;;;;;4802850;29;20502;-90
2023/11/23 02:50:36;;;;;;;31.00;13.77;;;1.30;76.90;;;;;;4794206;29;20421;-92
2023/11/23 02:53:03;;;;;;;28.65;13.48;;;1.40;76.80;;;;;;4795241;29;20501;-92
2023/11/23 02:55:31;;;;;;;40.33;15.00;;;1.50;76.70;;;;;;4808149;29;20062;-92
2023/11/23 02:57:58;;;;;;;33.80;14.07;;;1.50;76.40;;;;;;4796173;29;20054;-92
2023/11/23 03:00:25;;;;;;;44.55;14.20;;;1.50;76.60;;;;;;4811100;29;20554;-91
2023/11/23 03:02:54;;;;;;;36.03;13.23;;;1.50;76.60;;;;;;4796336;29;20410;-91
2023/11/23 03:05:22;;;;;;;24.35;10.23;;;1.50;76.10;;;;;;4810896;29;20057;-91
2023/11/23 03:07:49;;;;;;;29.10;10.57;;;1.50;75.20;;;;;;4786807;29;20042;-91
2023/11/23 03:10:17;;;;;;;25.15;11.15;;;1.40;75.10;;;;;;4787504;29;20046;-91
2023/11/23 03:12:44;;;;;;;26.55;11.15;;;1.40;75.30;;;;;;4798700;29;20049;-90
2023/11/23 03:15:12;;;;;;;25.92;10.95;;;1.40;75.30;;;;;;4778150;29;20528;-90
2023/11/23 03:17:39;;;;;;;37.13;13.15;;;1.40;75.50;;;;;;4790089;29;20054;-92
2023/11/23 03:20:07;;;;;;;31.10;10.57;;;1.30;75.70;;;;;;4795197;29;20514;-91
2023/11/23 03:22:34;;;;;;;31.67;12.52;;;1.40;76.20;;;;;;4791479;29;20054;-91
2023/11/23 03:25:01;;;;;;;30.58;12.43;;;1.40;76.00;;;;;;4807317;29;20103;-91
2023/11/23 03:27:33;;;;;;;27.67;11.13;;;1.40;76.00;;;;;;4804699;29;20516;-90
2023/11/23 03:30:01;;;;;;;22.63;10.07;;;1.50;75.70;;;;;;4777081;30;20051;-91
2023/11/23 03:32:30;;;;;;;27.13;11.00;;;1.60;75.50;;;;;;4792137;29;20069;-90
2023/11/23 03:34:58;;;;;;;27.80;11.82;;;1.60;75.00;;;;;;4804981;29;20067;-90
2023/11/23 03:37:27;;;;;;;21.00;8.60;;;1.50;75.10;;;;;;4793197;29;20081;-90
2023/11/23 03:39:55;;;;;;;22.42;9.18;;;1.40;74.80;;;;;;4789156;29;20058;-91
2023/11/23 03:42:22;;;;;;;25.25;10.52;;;1.40;75.00;;;;;;4777614;29;20414;-91
2023/11/23 03:44:49;;;;;;;25.17;9.90;;;1.40;75.00;;;;;;4792093;29;20475;-91
2023/11/23 03:47:16;;;;;;;21.80;9.50;;;1.40;74.70;;;;;;4792895;29;20073;-91
2023/11/23 03:49:43;;;;;;;22.05;9.52;;;1.40;74.70;;;;;;4783561;29;20050;-91
2023/11/23 03:52:11;;;;;;;22.45;9.70;;;1.40;74.70;;;;;;4785460;29;20053;-91
2023/11/23 03:54:38;;;;;;;23.67;9.63;;;1.40;74.40;;;;;;4799386;29;20065;-91
2023/11/23 03:57:05;;;;;;;29.50;11.27;;;1.40;75.20;;;;;;4811803;29;20092;-90
2023/11/23 03:59:32;;;;;;;26.50;10.73;;;1.40;75.20;;;;;;4817794;29;20405;-91
2023/11/23 04:01:59;;;;;;;38.97;14.07;;;1.50;75.60;;;;;;4796827;29;20061;-91
2023/11/23 04:04:26;;;;;;;44.03;13.65;;;1.50;75.50;;;;;;4805373;29;20038;-91
2023/11/23 04:06:54;;;;;;;48.05;14.20;;;1.50;75.60;;;;;;4805037;29;20043;-91
2023/11/23 04:09:21;;;;;;;39.93;13.23;;;1.50;75.80;;;;;;4803642;29;20039;-91
2023/11/23 04:11:48;;;;;;;36.97;12.70;;;1.60;75.60;;;;;;4804724;29;20134;-91
2023/11/23 04:14:18;;;;;;;33.72;11.95;;;1.50;75.70;;;;;;4796618;29;20045;-91
2023/11/23 04:16:45;;;;;;;36.95;13.07;;;1.60;75.50;;;;;;4804095;29;20468;-91
2023/11/23 04:19:12;;;;;;;32.80;11.82;;;1.60;75.30;;;;;;4802790;29;20045;-90
2023/11/23 04:21:39;;;;;;;35.97;11.80;;;1.50;75.20;;;;;;4801964;29;20138;-91
2023/11/23 04:24:07;;;;;;;32.38;10.50;;;1.60;75.30;;;;;;4812895;29;20054;-90
2023/11/23 04:26:34;;;;;;;34.42;11.07;;;1.60;75.40;;;;;;4821529;29;20118;-91
2023/11/23 04:29:02;;;;;;;28.10;11.10;;;1.70;75.50;;;;;;4814367;29;20050;-91
2023/11/23 04:31:29;;;;;;;34.13;11.27;;;1.70;75.70;;;;;;4798567;29;20138;-90
2023/11/23 04:33:56;;;;;;;25.37;10.83;;;1.80;75.30;;;;;;4818002;29;20046;-90
2023/11/23 04:36:23;;;;;;;26.65;9.63;;;1.70;74.60;;;;;;4802773;29;20392;-90
2023/11/23 04:38:50;;;;;;;23.20;8.88;;;1.50;74.90;;;;;;4815457;29;20136;-88
2023/11/23 04:41:17;;;;;;;21.88;9.18;;;1.40;75.20;;;;;;4811131;29;20046;-91
2023/11/23 04:43:44;;;;;;;22.90;8.98;;;1.40;75.90;;;;;;4816168;29;20501;-87
2023/11/23 04:46:11;;;;;;;26.27;9.53;;;1.40;75.90;;;;;;4815084;29;20098;-89
2023/11/23 04:48:38;;;;;;;22.98;10.05;;;1.40;76.10;;;;;;4801678;29;20046;-90
2023/11/23 04:51:06;;;;;;;23.73;9.27;;;1.40;75.70;;;;;;4813617;29;20474;-90
2023/11/23 04:53:33;;;;;;;25.63;12.70;;;1.50;75.80;;;;;;4814982;29;20485;-89
2023/11/23 04:56:00;;;;;;;25.67;9.40;;;1.70;75.60;;;;;;4804971;29;20164;-89
2023/11/23 04:58:27;;;;;;;25.70;9.73;;;1.70;75.40;;;;;;4797707;29;20455;-89
2023/11/23 05:00:55;;;;;;;29.08;10.32;;;1.70;75.50;;;;;;4816625;29;20062;-89
2023/11/23 05:03:22;;;;;;;28.77;10.02;;;1.50;75.00;;;;;;4799832;29;20057;-89
2023/11/23 05:05:49;;;;;;;29.25;9.98;;;1.50;75.60;;;;;;4802539;29;20106;-89
2023/11/23 05:08:16;;;;;;;26.85;9.57;;;1.50;75.60;;;;;;4809205;29;20077;-89
2023/11/23 05:10:43;;;;;;;25.63;9.37;;;1.40;75.60;;;;;;4794147;29;20074;-89
2023/11/23 05:13:10;;;;;;;25.02;9.40;;;1.40;75.60;;;;;;4801921;29;20049;-89
2023/11/23 05:15:37;;;;;;;28.35;10.75;;;1.40;76.00;;;;;;4805363;29;20109;-89
2023/11/23 05:18:05;;;;;;;44.35;13.98;;;1.30;75.90;;;;;;4810964;29;20476;-89
2023/11/23 05:20:33;;;;;;;40.92;13.75;;;1.30;75.90;;;;;;4805702;29;20413;-90
2023/11/23 05:23:00;;;;;;;34.03;12.00;;;1.30;76.20;;;;;;4804194;29;20524;-90
2023/11/23 05:25:27;;;;;;;32.45;12.00;;;1.40;76.30;;;;;;4819476;29;20409;-90
2023/11/23 05:27:54;;;;;;;26.75;10.77;;;1.40;75.60;;;;;;4802666;29;20050;-89
2023/11/23 05:30:21;;;;;;;29.90;10.15;;;1.40;76.00;;;;;;4805969;29;20043;-90
2023/11/23 05:32:48;;;;;;;27.15;10.52;;;1.30;76.30;;;;;;4820209;29;20042;-90
2023/11/23 05:35:15;;;;;;;30.10;11.07;;;1.40;76.00;;;;;;4799190;29;20042;-90
2023/11/23 05:37:43;;;;;;;30.75;10.95;;;1.40;75.80;;;;;;4801543;29;20065;-89
2023/11/23 05:40:12;;;;;;;28.20;10.50;;;1.30;76.00;;;;;;4797329;29;20089;-89
2023/11/23 05:42:42;;;;;;;26.08;9.82;;;1.30;76.20;;;;;;4801689;29;20524;-89
2023/11/23 05:45:32;;;;;;;23.55;9.60;;;1.20;76.30;;;;;;4802798;29;20054;-89
2023/11/23 05:47:59;;;;;;;31.10;12.40;;;1.20;76.70;;;;;;4802200;29;20049;-89
2023/11/23 05:50:26;;;;;;;37.55;13.77;;;1.30;76.60;;;;;;4802367;29;20069;-89
2023/11/23 05:52:53;;;;;;;43.40;16.67;;;1.30;76.60;;;;;;4803368;29;20061;-90
2023/11/23 05:55:20;;;;;;;39.75;14.00;;;1.40;76.60;;;;;;4818786;29;20506;-89
2023/11/23 05:57:47;;;;;;;47.20;17.63;;;1.40;76.20;;;;;;4797724;29;20053;-88
2023/11/23 06:00:15;;;;;;;45.20;16.83;;;1.40;75.90;;;;;;4798754;29;20057;-88
2023/11/23 06:02:42;;;;;;;43.97;15.90;;;1.30;76.10;;;;;;4809276;29;20106;-88
2023/11/23 06:05:10;;;;;;;45.80;14.85;;;1.30;76.30;;;;;;4802524;29;20062;-88
2023/11/23 06:07:37;;;;;;;37.30;13.98;;;1.30;76.30;;;;;;4805344;29;20049;-88
2023/11/23 06:10:06;;;;;;;40.63;13.70;;;1.40;76.40;;;;;;4812634;29;20505;-88
2023/11/23 06:12:34;;;;;;;39.03;13.07;;;1.40;76.20;;;;;;4802710;29;20045;-88
2023/11/23 06:15:02;;;;;;;38.88;13.23;;;1.40;76.60;;;;;;4805947;29;20523;-89
2023/11/23 06:17:30;;;;;;;24.25;10.82;;;1.20;76.70;;;;;;4799584;29;20425;-88
2023/11/23 06:19:57;;;;;;;29.15;12.63;;;1.20;76.70;;;;;;4796591;29;20058;-92
2023/11/23 06:22:24;;;;;;;32.20;11.77;;;1.20;76.80;;;;;;4815537;29;20050;-88
2023/11/23 06:24:52;;;;;;;27.60;11.53;;;1.20;76.90;;;;;;4814464;29;20054;-89
2023/11/23 06:27:19;;;;;;;31.13;11.70;;;1.20;76.80;;;;;;4796688;29;20054;-89
2023/11/23 06:29:46;;;;;;;33.70;13.27;;;1.20;77.00;;;;;;4800657;29;20042;-89
2023/11/23 06:32:13;;;;;;;27.05;11.13;;;1.30;76.70;;;;;;4802697;29;20053;-88
2023/11/23 06:34:40;;;;;;;21.73;9.85;;;1.30;76.30;;;;;;4819333;29;20141;-89
2023/11/23 06:37:08;;;;;;;23.90;9.03;;;1.30;76.20;;;;;;4817350;29;20050;-89
2023/11/23 06:39:38;;;;;;;23.10;9.35;;;1.30;76.60;;;;;;4808260;29;20050;-88
2023/11/23 06:42:05;;;;;;;23.60;8.68;;;1.40;76.50;;;;;;4817872;29;20056;-88
2023/11/23 06:44:32;;;;;;;23.77;10.07;;;1.40;76.40;;;;;;4801366;29;20050;-89
2023/11/23 06:47:00;;;;;;;25.35;11.50;;;1.50;76.20;;;;;;4807530;29;20046;-89
2023/11/23 06:49:27;;;;;;;30.00;12.50;;;1.50;76.30;;;;;;4802943;29;20046;-89
2023/11/23 06:51:55;;;;;;;32.97;12.55;;;1.60;76.20;;;;;;4814578;29;20061;-89
2023/11/23 06:54:22;;;;;;;32.13;10.45;;;1.70;76.10;;;;;;4813416;29;20046;-89
2023/11/23 06:56:49;;;;;;;32.42;11.95;;;1.60;76.70;;;;;;4819690;29;20528;-89
2023/11/23 06:59:16;;;;;;;35.33;10.93;;;1.70;77.10;;;;;;4799570;29;20062;-89
2023/11/23 07:01:43;;;;;;;40.23;10.60;;;1.70;77.10;;;;;;4794995;29;20045;-89
2023/11/23 07:04:10;;;;;;;57.85;18.38;;;1.80;76.90;;;;;;4802127;29;20053;-89
2023/11/23 07:06:38;;;;;;;64.65;22.58;;;1.90;76.50;;;;;;4800476;29;20104;-89
2023/11/23 07:09:06;;;;;;;46.33;15.60;;;1.90;76.40;;;;;;4801282;29;20046;-89
2023/11/23 07:11:35;;;;;;;26.05;10.15;;;2.00;76.10;;;;;;4802873;29;20462;-89
2023/11/23 07:14:02;;;;;;;19.67;7.57;;;1.90;75.70;;;;;;4815947;29;20138;-89
2023/11/23 07:16:29;;;;;;;22.60;8.20;;;1.90;75.60;;;;;;4815270;29;20046;-89
2023/11/23 07:18:56;;;;;;;17.73;7.88;;;1.90;76.10;;;;;;4800016;29;20137;-89
2023/11/23 07:21:23;;;;;;;18.60;7.50;;;1.90;75.90;;;;;;4795320;29;20080;-89
2023/11/23 07:23:50;;;;;;;18.30;7.47;;;1.90;75.70;;;;;;4813013;29;20056;-89
2023/11/23 07:26:18;;;;;;;19.27;7.80;;;1.80;75.70;;;;;;4813565;29;20477;-89
2023/11/23 07:28:46;;;;;;;17.58;6.45;;;1.80;76.00;;;;;;4814177;29;20052;-89
2023/11/23 07:31:13;;;;;;;15.13;6.22;;;1.70;76.30;;;;;;4800134;29;20125;-89
2023/11/23 07:33:40;;;;;;;21.05;7.50;;;1.70;76.10;;;;;;4815239;29;20047;-89
2023/11/23 07:36:07;;;;;;;18.67;7.90;;;1.70;76.20;;;;;;4804240;29;20049;-90
2023/11/23 07:38:35;;;;;;;17.93;6.57;;;1.70;76.60;;;;;;4817537;29;20050;-89
2023/11/23 07:41:02;;;;;;;19.23;7.57;;;1.70;76.10;;;;;;4818104;29;20046;-90
2023/11/23 07:43:30;;;;;;;19.75;7.95;;;1.80;76.40;;;;;;4802204;29;20474;-89
2023/11/23 07:45:59;;;;;;;20.63;8.45;;;1.80;76.40;;;;;;4816814;29;20450;-90
2023/11/23 07:48:27;;;;;;;21.70;8.45;;;1.80;76.20;;;;;;4800972;29;20042;-90
2023/11/23 07:50:54;;;;;;;17.80;7.67;;;1.90;76.50;;;;;;4805920;29;20049;-89
2023/11/23 07:53:26;;;;;;;25.05;9.27;;;1.90;76.10;;;;;;4796611;29;20046;-90
2023/11/23 07:55:54;;;;;;;24.85;9.02;;;2.00;76.20;;;;;;4805691;29;20043;-90
2023/11/23 07:58:22;;;;;;;26.58;9.73;;;2.10;76.60;;;;;;4792644;29;20099;-90
2023/11/23 08:00:49;;;;;;;23.92;8.48;;;2.20;76.30;;;;;;4793107;29;20144;-90
2023/11/23 08:03:16;;;;;;;19.97;8.20;;;2.40;76.00;;;;;;4805047;29;20050;-90
2023/11/23 08:05:45;;;;;;;24.27;9.35;;;2.40;76.00;;;;;;4805962;29;20064;-90
2023/11/23 08:08:13;;;;;;;23.40;9.18;;;2.40;75.90;;;;;;4790810;29;20062;-90
2023/11/23 08:10:40;;;;;;;21.30;8.45;;;2.50;75.70;;;;;;4805952;29;20050;-90
2023/11/23 08:13:08;;;;;;;27.40;9.60;;;;;;;;;;4791357;29;20051;-91
2023/11/23 08:15:36;;;;;;;21.47;9.13;;;;;;;;;;4792462;29;20048;-89
2023/11/23 08:18:03;;;;;;;25.58;9.18;;;2.50;75.00;;;;;;4792298;29;20050;-90
2023/11/23 08:20:36;;;;;;;25.30;10.23;;;2.50;75.00;;;;;;4806220;29;20051;-89
2023/11/23 08:23:05;;;;;;;25.63;10.45;;;2.50;75.60;;;;;;4782902;29;20051;-90
2023/11/23 08:25:32;;;;;;;27.27;11.00;;;2.70;75.80;;;;;;4805207;29;20042;-89
2023/11/23 08:27:59;;;;;;;32.70;10.03;;;2.70;75.50;;;;;;4791764;29;20047;-89
2023/11/23 08:30:26;;;;;;;28.75;11.00;;;2.80;75.80;;;;;;4792432;29;20088;-90
2023/11/23 08:32:55;;;;;;;30.33;12.25;;;2.80;75.60;;;;;;4790909;29;20053;-89
2023/11/23 08:35:23;;;;;;;34.03;12.00;;;2.90;75.80;;;;;;4792573;29;20103;-90
2023/11/23 08:37:50;;;;;;;31.63;11.95;;;2.90;75.20;;;;;;4789818;29;20054;-90
2023/11/23 08:40:17;;;;;;;34.93;12.13;;;2.90;75.70;;;;;;4807100;29;20082;-90
2023/11/23 08:42:44;;;;;;;37.35;13.15;;;2.90;75.70;;;;;;4789247;29;20085;-90
2023/11/23 08:45:11;;;;;;;34.65;12.23;;;3.00;75.70;;;;;;4806291;29;20567;-90
2023/11/23 08:47:38;;;;;;;37.17;12.23;;;3.00;75.40;;;;;;4791070;29;20082;-90
2023/11/23 08:50:08;;;;;;;36.20;12.02;;;3.00;75.10;;;;;;4809546;29;20141;-90
2023/11/23 08:52:37;;;;;;;36.40;11.93;;;3.00;75.50;;;;;;4794381;29;20049;-90
2023/11/23 08:55:23;;;;;;;27.27;10.88;;;3.00;75.60;;;;;;4805688;29;20489;-90
2023/11/23 08:57:52;;;;;;;26.95;9.82;;;3.10;75.80;;;;;;4801555;29;20051;-90
2023/11/23 09:00:28;;;;;;;23.90;9.43;;;3.10;75.30;;;;;;4817705;29;20053;-89
2023/11/23 09:02:55;;;;;;;22.15;8.18;;;3.00;75.40;;;;;;4810834;29;20055;-90
2023/11/23 09:05:23;;;;;;;29.37;9.37;;;3.00;75.20;;;;;;4818942;29;20049;-90
2023/11/23 09:07:50;;;;;;;24.80;9.45;;;3.00;75.90;;;;;;4806819;29;20428;-90
2023/11/23 09:10:17;;;;;;;22.92;10.02;;;2.90;75.80;;;;;;4817239;29;20050;-90
2023/11/23 09:12:44;;;;;;;24.92;9.57;;;3.00;76.10;;;;;;4821427;29;20042;-90
2023/11/23 09:15:13;;;;;;;22.65;10.30;;;3.00;75.80;;;;;;4818776;29;20050;-90
2023/11/23 09:17:40;;;;;;;21.77;9.17;;;3.00;75.70;;;;;;4801451;29;20047;-89
2023/11/23 09:20:08;;;;;;;22.58;8.88;;;3.00;75.20;;;;;;4803772;29;20055;-90
2023/11/23 09:22:36;;;;;;;21.85;8.68;;;3.00;75.70;;;;;;4818352;29;20409;-89
2023/11/23 09:25:06;;;;;;;23.23;9.35;;;2.90;75.50;;;;;;4816241;29;20053;-89
2023/11/23 09:27:35;;;;;;;24.52;9.45;;;2.90;75.50;;;;;;4815508;29;20055;-90
2023/11/23 09:30:04;;;;;;;20.33;8.30;;;3.00;75.80;;;;;;4823266;29;20385;-90
2023/11/23 09:32:36;;;;;;;23.35;9.70;;;3.00;75.60;;;;;;4813793;29;20047;-89
2023/11/23 09:35:10;;;;;;;20.08;8.73;;;3.10;75.90;;;;;;4818011;29;20053;-89
2023/11/23 09:37:37;;;;;;;19.98;9.10;;;3.00;74.70;;;;;;4805657;29;20046;-90
2023/11/23 09:40:07;;;;;;;20.05;7.75;;;3.00;75.30;;;;;;4819413;29;20072;-90
2023/11/23 09:42:38;;;;;;;24.83;9.60;;;3.00;74.50;;;;;;4820469;29;20051;-89
2023/11/23 09:45:10;;;;;;;22.70;9.23;;;2.90;75.10;;;;;;4798207;29;20081;-90
2023/11/23 09:47:38;;;;;;;23.45;9.40;;;3.00;75.70;;;;;;4820626;29;20047;-90
2023/11/23 09:50:07;;;;;;;22.77;9.48;;;3.20;75.80;;;;;;4803777;29;20121;-90
2023/11/23 09:52:36;;;;;;;22.83;9.02;;;3.30;75.40;;;;;;4819911;29;20053;-89
2023/11/23 09:55:07;;;;;;;26.13;9.13;;;3.40;75.50;;;;;;4800971;29;20062;-90
2023/11/23 09:57:35;;;;;;;24.42;9.88;;;3.40;75.40;;;;;;4781305;29;20050;-90
2023/11/23 10:00:09;;;;;;;23.85;10.15;;;3.40;75.10;;;;;;4795897;29;20059;-90
2023/11/23 10:02:39;;;;;;;21.05;8.20;;;3.50;74.20;;;;;;4796945;29;20054;-90
2023/11/23 10:05:09;;;;;;;20.67;9.00;;;3.50;74.60;;;;;;4785573;29;20455;-90
2023/11/23 10:07:36;;;;;;;21.30;9.30;;;3.40;74.20;;;;;;4800418;29;20145;-90
2023/11/23 10:10:05;;;;;;;19.75;9.27;;;3.40;74.60;;;;;;4780944;29;20038;-90
2023/11/23 10:12:35;;;;;;;21.35;9.45;;;3.50;74.60;;;;;;4785549;29;20119;-90
2023/11/23 10:15:04;;;;;;;22.98;9.55;;;3.50;74.50;;;;;;4785111;29;20078;-90
2023/11/23 10:17:32;;;;;;;22.35;9.98;;;3.60;74.10;;;;;;4789788;29;20059;-90
2023/11/23 10:20:14;;;;;;;24.83;10.80;;;3.70;74.00;;;;;;4787697;29;20051;-90
2023/11/23 10:22:47;;;;;;;21.00;9.63;;;3.70;74.40;;;;;;4789287;29;20046;-90
2023/11/23 10:25:31;;;;;;;18.48;8.40;;;3.70;73.80;;;;;;4783241;29;20455;-91
2023/11/23 10:28:00;;;;;;;22.17;9.85;;;3.70;74.10;;;;;;4786288;29;20069;-90
2023/11/23 10:30:31;;;;;;;25.45;10.68;;;3.70;73.90;;;;;;4801885;29;20043;-90
2023/11/23 10:33:00;;;;;;;34.07;12.23;;;3.70;74.60;;;;;;4783891;29;20062;-90
2023/11/23 10:35:34;;;;;;;30.20;11.88;;;3.80;73.70;;;;;;4800333;29;20442;-90
2023/11/23 10:38:02;;;;;;;26.45;10.35;;;3.90;73.60;;;;;;4782888;29;20075;-90
2023/11/23 10:40:29;;;;;;;23.83;9.63;;;4.00;74.10;;;;;;4784599;29;20051;-90
2023/11/23 10:42:59;;;;;;;22.25;9.35;;;4.00;73.50;;;;;;4800078;29;20110;-90
2023/11/23 10:45:27;;;;;;;20.33;8.73;;;4.10;73.80;;;;;;4795116;29;20055;-90
2023/11/23 10:47:58;;;;;;;22.13;9.10;;;4.10;72.90;;;;;;4786305;29;20058;-90
2023/11/23 10:50:26;;;;;;;22.67;9.57;;;4.20;73.00;;;;;;4800242;29;20474;-90
2023/11/23 10:53:00;;;;;;;24.90;9.45;;;4.20;72.50;;;;;;4780341;29;20072;-90
2023/11/23 10:55:27;;;;;;;36.45;11.43;;;4.20;72.40;;;;;;4791876;29;20050;-90
2023/11/23 10:58:07;;;;;;;49.90;17.70;;;4.20;72.60;;;;;;4780909;29;20435;-90
2023/11/23 11:00:35;;;;;;;28.55;12.15;;;4.30;73.10;;;;;;4780638;29;20054;-90
2023/11/23 11:03:09;;;;;;;28.85;13.15;;;4.40;72.80;;;;;;4799365;29;20054;-90
2023/11/23 11:05:45;;;;;;;26.25;10.75;;;4.50;73.20;;;;;;4788821;29;20051;-90
2023/11/23 11:08:20;;;;;;;23.48;9.10;;;4.60;73.50;;;;;;4786229;29;20050;-89
2023/11/23 11:10:50;;;;;;;22.53;8.23;;;4.70;73.80;;;;;;4780755;29;20046;-90
2023/11/23 11:13:20;;;;;;;22.63;8.60;;;4.80;73.50;;;;;;4781671;29;20054;-90
2023/11/23 11:15:53;;;;;;;22.83;9.77;;;4.90;73.30;;;;;;4789317;29;20042;-90
2023/11/23 11:18:22;;;;;;;29.77;9.90;;;5.00;72.90;;;;;;4781746;29;20053;-90
2023/11/23 11:21:09;;;;;;;18.95;7.72;;;5.00;73.40;;;;;;4798516;29;20085;-90
2023/11/23 11:23:44;;;;;;;21.37;7.53;;;5.00;73.20;;;;;;4779078;29;20069;-91
2023/11/23 11:26:13;;;;;;;15.77;6.50;;;5.00;73.60;;;;;;4797403;29;20057;-90
2023/11/23 11:28:40;;;;;;;11.57;4.38;;;5.00;73.20;;;;;;4791760;29;20054;-90
2023/11/23 11:31:13;;;;;;;9.75;3.50;;;5.10;72.90;;;;;;4784734;29;20491;-90
2023/11/23 11:33:40;;;;;;;7.57;3.08;;;5.20;72.70;;;;;;4783805;29;20078;-90
2023/11/23 11:36:11;;;;;;;8.30;2.83;;;5.40;72.60;;;;;;4792153;29;20043;-90
2023/11/23 11:38:39;;;;;;;8.75;3.00;;;5.40;72.40;;;;;;4801445;29;20055;-90
2023/11/23 11:41:09;;;;;;;8.57;3.00;;;5.50;71.90;;;;;;4781457;29;20050;-90
2023/11/23 11:43:36;;;;;;;8.20;2.90;;;5.50;72.30;;;;;;4794115;29;20066;-90
2023/11/23 11:46:05;;;;;;;7.57;2.80;;;5.60;72.50;;;;;;4783280;29;20054;-91
2023/11/23 11:48:32;;;;;;;7.77;2.80;;;5.70;72.30;;;;;;4790050;29;20081;-91
2023/11/23 11:51:04;;;;;;;8.90;2.58;;;5.70;72.20;;;;;;4796543;29;20055;-90
2023/11/23 12:06:32;;;;;;;9.45;4.10;;;5.70;72.30;;;;;;5071054;28;20437;-93
2023/11/23 12:08:59;;;;;;;7.40;2.60;;;5.90;71.20;;;;;;5069923;28;20501;-92
2023/11/23 12:11:28;;;;;;;7.25;3.20;;;6.00;72.00;;;;;;5070172;28;20040;-92
2023/11/23 12:13:59;;;;;;;9.17;2.60;;;5.90;71.70;;;;;;5070141;28;20061;-92
2023/11/23 12:16:34;;;;;;;7.03;2.30;;;6.00;71.70;;;;;;5053345;28;20099;-92
2023/11/23 12:19:12;;;;;;;7.82;2.47;;;6.00;71.70;;;;;;5069956;28;20569;-92
2023/11/23 12:21:39;;;;;;;8.02;2.60;;;6.10;72.00;;;;;;5053367;28;20044;-93
2023/11/23 12:24:07;;;;;;;7.50;2.70;;;6.20;72.50;;;;;;5053641;28;20041;-92
2023/11/23 12:26:37;;;;;;;8.73;2.73;;;6.10;71.50;;;;;;5069755;28;20052;-93
2023/11/23 12:29:05;;;;;;;7.55;2.65;;;6.10;71.80;;;;;;5069949;28;20052;-93
2023/11/23 12:31:32;;;;;;;7.80;2.75;;;6.10;71.80;;;;;;5053247;28;20056;-92
2023/11/23 12:33:59;;;;;;;21.50;10.38;;;6.10;71.70;;;;;;5069561;28;20056;-92
2023/11/23 12:36:26;;;;;;;8.50;3.58;;;6.00;71.60;;;;;;5086591;28;20044;-91
2023/11/23 12:38:53;;;;;;;9.07;3.30;;;6.00;71.60;;;;;;5052914;28;20056;-93
2023/11/23 12:41:21;;;;;;;8.70;2.83;;;6.10;72.00;;;;;;5053076;28;20048;-93
2023/11/23 12:43:49;;;;;;;7.15;2.80;;;6.10;72.10;;;;;;5069390;28;20090;-93
2023/11/23 12:46:16;;;;;;;9.70;4.03;;;6.10;72.10;;;;;;5069447;28;20132;-93
2023/11/23 12:48:43;;;;;;;9.80;3.50;;;6.20;72.00;;;;;;5052898;28;20041;-92
2023/11/23 12:51:12;;;;;;;9.47;3.77;;;6.10;71.50;;;;;;5052974;28;20048;-93
2023/11/23 12:53:40;;;;;;;10.60;3.50;;;6.10;71.80;;;;;;5069235;28;20056;-92
2023/11/23 12:56:09;;;;;;;8.55;3.53;;;6.20;71.80;;;;;;5069257;28;20041;-92
2023/11/23 12:58:37;;;;;;;8.82;3.13;;;6.10;71.50;;;;;;5069299;28;20041;-92
2023/11/23 13:01:07;;;;;;;7.97;3.13;;;6.10;72.00;;;;;;5068848;28;20053;-93